createdAt,value
2022-09-17T00:01:34.605Z,9.60
2022-09-17T00:04:02.992Z,7.63
2022-09-17T00:06:32.839Z,6.90
2022-09-17T00:09:01.653Z,6.63
2022-09-17T00:11:32.802Z,7.70
2022-09-17T00:14:02.559Z,11.68
2022-09-17T00:16:40.399Z,16.27
2022-09-17T00:19:13.467Z,11.43
2022-09-17T00:21:42.702Z,11.98
2022-09-17T00:24:15.285Z,11.07
2022-09-17T00:26:43.745Z,8.40
2022-09-17T00:29:12.281Z,11.32
2022-09-17T00:31:41.245Z,11.80
2022-09-17T00:34:09.676Z,9.10
2022-09-17T00:36:39.550Z,11.80
2022-09-17T00:39:09.657Z,11.52
2022-09-17T00:41:38.785Z,13.63
2022-09-17T00:44:43.742Z,13.68
2022-09-17T00:47:35.659Z,14.00
2022-09-17T00:50:15.220Z,12.63
2022-09-17T00:52:48.027Z,11.70
2022-09-17T00:55:18.999Z,12.45
2022-09-17T00:57:48.669Z,10.63
2022-09-17T01:00:18.092Z,11.95
2022-09-17T01:02:47.038Z,8.55
2022-09-17T01:05:16.878Z,7.43
2022-09-17T01:07:44.965Z,6.47
2022-09-17T01:10:37.965Z,6.35
2022-09-17T01:13:20.034Z,7.47
2022-09-17T01:15:52.119Z,9.50
2022-09-17T01:18:32.879Z,21.58
2022-09-17T01:21:25.232Z,16.13
2022-09-17T01:24:20.708Z,79.75
2022-09-17T01:26:51.640Z,34.85
2022-09-17T01:29:37.997Z,31.10
2022-09-17T01:32:15.183Z,42.88
2022-09-17T01:35:15.749Z,17.98
2022-09-17T01:37:57.363Z,8.55
2022-09-17T01:40:55.456Z,8.23
2022-09-17T01:43:34.593Z,9.98
2022-09-17T01:46:14.839Z,8.25
2022-09-17T01:48:47.407Z,10.98
2022-09-17T01:51:21.146Z,16.08
2022-09-17T01:54:15.431Z,11.77
2022-09-17T01:56:51.477Z,22.60
2022-09-17T01:59:32.385Z,15.43
2022-09-17T02:02:11.926Z,17.27
2022-09-17T02:04:46.331Z,9.82
2022-09-17T02:07:20.225Z,10.65
2022-09-17T02:09:55.137Z,13.65
2022-09-17T02:12:31.114Z,30.40
2022-09-17T02:15:02.804Z,27.00
2022-09-17T02:17:44.159Z,62.15
2022-09-17T02:20:13.201Z,24.23
2022-09-17T02:22:48.475Z,12.10
2022-09-17T02:25:39.698Z,49.10
2022-09-17T02:28:44.415Z,87.05
2022-09-17T02:31:12.940Z,70.05
2022-09-17T02:33:45.496Z,24.38
2022-09-17T02:36:14.181Z,29.67
2022-09-17T02:38:46.449Z,10.02
2022-09-17T02:41:25.016Z,8.40
2022-09-17T02:44:01.377Z,8.55
2022-09-17T02:46:46.286Z,7.95
2022-09-17T02:49:42.003Z,9.45
2022-09-17T02:52:34.318Z,8.43
2022-09-17T02:55:19.104Z,8.07
2022-09-17T02:58:11.637Z,8.10
2022-09-17T03:03:39.746Z,7.53
2022-09-17T03:06:08.016Z,7.88
2022-09-17T03:08:42.392Z,7.47
2022-09-17T03:11:12.282Z,8.43
2022-09-17T03:13:40.806Z,7.13
2022-09-17T03:16:09.250Z,7.53
2022-09-17T03:18:37.508Z,8.90
2022-09-17T03:21:05.520Z,8.27
2022-09-17T03:23:33.650Z,8.52
2022-09-17T03:26:02.395Z,7.43
2022-09-17T03:28:30.508Z,9.30
2022-09-17T03:30:58.730Z,8.90
2022-09-17T03:33:27.026Z,8.15
2022-09-17T03:35:55.130Z,8.27
2022-09-17T03:38:23.381Z,8.38
2022-09-17T03:41:03.444Z,7.45
2022-09-17T03:43:32.662Z,7.70
2022-09-17T03:46:00.770Z,7.22
2022-09-17T03:48:29.076Z,7.15
2022-09-17T03:50:59.900Z,7.22
2022-09-17T03:53:32.378Z,7.28
2022-09-17T03:56:01.953Z,7.72
2022-09-17T03:58:31.733Z,7.43
2022-09-17T04:01:00.795Z,7.30
2022-09-17T04:03:29.534Z,7.63
2022-09-17T04:05:57.858Z,7.60
2022-09-17T04:08:25.953Z,8.80
2022-09-17T04:10:54.436Z,8.77
2022-09-17T04:13:22.811Z,8.52
2022-09-17T04:15:51.246Z,8.30
2022-09-17T04:18:19.309Z,8.27
2022-09-17T04:20:47.664Z,8.70
2022-09-17T04:23:15.712Z,9.90
2022-09-17T04:25:43.827Z,9.82
2022-09-17T04:28:12.525Z,9.07
2022-09-17T04:30:40.763Z,8.15
2022-09-17T04:33:09.049Z,8.50
2022-09-17T04:35:37.530Z,9.13
2022-09-17T04:38:05.893Z,9.77
2022-09-17T04:40:34.100Z,9.68
2022-09-17T04:43:02.435Z,9.43
2022-09-17T04:45:31.326Z,12.82
2022-09-17T04:47:59.491Z,10.68
2022-09-17T04:50:27.790Z,9.93
2022-09-17T04:52:55.936Z,8.60
2022-09-17T04:55:24.333Z,9.48
2022-09-17T04:57:54.083Z,9.45
2022-09-17T05:00:23.291Z,8.23
2022-09-17T05:02:53.713Z,7.63
2022-09-17T05:05:22.474Z,6.65
2022-09-17T05:07:50.591Z,7.32
2022-09-17T05:10:20.661Z,6.70
2022-09-17T05:12:53.785Z,6.55
2022-09-17T05:15:23.026Z,7.60
2022-09-17T05:17:51.286Z,7.40
2022-09-17T05:20:19.501Z,7.95
2022-09-17T05:22:50.048Z,10.55
2022-09-17T05:25:20.564Z,9.60
2022-09-17T05:27:48.669Z,9.15
2022-09-17T05:30:17.032Z,8.02
2022-09-17T05:32:45.156Z,8.68
2022-09-17T05:35:13.463Z,8.70
2022-09-17T05:37:41.682Z,7.43
2022-09-17T05:40:10.396Z,8.40
2022-09-17T05:42:38.737Z,8.27
2022-09-17T05:45:07.386Z,7.68
2022-09-17T05:47:35.598Z,7.68
2022-09-17T05:50:03.710Z,7.20
2022-09-17T05:52:31.956Z,8.65
2022-09-17T05:55:00.140Z,9.13
2022-09-17T05:57:30.314Z,8.77
2022-09-17T05:59:58.562Z,9.55
2022-09-17T06:02:26.631Z,9.05
2022-09-17T06:04:54.776Z,11.15
2022-09-17T06:07:23.018Z,9.80
2022-09-17T06:09:51.277Z,8.98
2022-09-17T06:12:19.388Z,8.30
2022-09-17T06:14:47.546Z,8.10
2022-09-17T06:17:20.219Z,9.88
2022-09-17T06:19:50.398Z,15.40
2022-09-17T06:22:20.203Z,15.23
2022-09-17T06:24:48.380Z,21.05
2022-09-17T06:27:16.493Z,16.75
2022-09-17T06:29:44.697Z,15.38
2022-09-17T06:32:12.822Z,15.25
2022-09-17T06:34:40.929Z,15.65
2022-09-17T06:37:09.178Z,11.13
2022-09-17T06:39:37.332Z,9.52
2022-09-17T06:42:05.706Z,9.32
2022-09-17T06:44:33.898Z,8.70
2022-09-17T06:47:02.117Z,10.32
2022-09-17T06:49:30.312Z,11.25
2022-09-17T06:51:58.489Z,10.77
2022-09-17T06:54:26.773Z,12.35
2022-09-17T06:56:54.868Z,14.25
2022-09-17T06:59:24.499Z,15.60
2022-09-17T07:01:52.876Z,10.30
2022-09-17T07:04:21.061Z,10.70
2022-09-17T07:06:49.328Z,13.18
2022-09-17T07:09:17.498Z,10.60
2022-09-17T07:11:46.465Z,11.15
2022-09-17T07:14:14.806Z,10.25
2022-09-17T07:16:42.934Z,11.73
2022-09-17T07:19:14.796Z,11.20
2022-09-17T07:21:43.396Z,12.40
2022-09-17T07:24:11.451Z,11.73
2022-09-17T07:26:39.583Z,12.65
2022-09-17T07:29:07.821Z,10.27
2022-09-17T07:31:36.084Z,9.20
2022-09-17T07:34:04.377Z,9.63
2022-09-17T07:36:32.402Z,10.50
2022-09-17T07:39:00.602Z,9.88
2022-09-17T07:41:28.638Z,10.02
2022-09-17T07:43:56.799Z,10.25
2022-09-17T07:46:25.030Z,9.82
2022-09-17T07:48:53.133Z,9.82
2022-09-17T07:51:23.966Z,11.15
2022-09-17T07:53:53.797Z,12.45
2022-09-17T07:56:22.805Z,8.93
2022-09-17T07:58:51.276Z,9.40
2022-09-17T08:01:19.939Z,9.63
2022-09-17T08:03:55.406Z,11.52
2022-09-17T08:06:27.825Z,12.65
2022-09-17T08:09:00.276Z,13.25
2022-09-17T08:11:55.748Z,18.63
2022-09-17T08:14:18.589Z,22.98
2022-09-17T08:16:46.761Z,15.75
2022-09-17T08:19:14.917Z,12.10
2022-09-17T08:21:43.070Z,9.80
2022-09-17T08:24:12.723Z,11.32
2022-09-17T08:26:40.843Z,10.63
2022-09-17T08:29:09.042Z,12.93
2022-09-17T08:31:37.436Z,65.15
2022-09-17T08:34:09.931Z,56.90
2022-09-17T08:36:38.169Z,34.88
2022-09-17T08:39:06.421Z,13.70
2022-09-17T08:41:47.122Z,12.40
2022-09-17T08:44:32.486Z,10.68
2022-09-17T08:47:04.624Z,11.52
2022-09-17T08:52:37.486Z,9.07
2022-09-17T08:55:14.875Z,10.70
2022-09-17T08:57:51.942Z,10.65
2022-09-17T09:00:22.143Z,11.00
2022-09-17T09:03:08.743Z,11.80
2022-09-17T09:05:49.216Z,10.98
2022-09-17T09:08:35.461Z,9.68
2022-09-17T09:11:06.405Z,9.30
2022-09-17T09:13:47.548Z,9.73
2022-09-17T09:16:20.441Z,10.77
2022-09-17T09:18:55.089Z,11.30
2022-09-17T09:21:46.046Z,12.15
2022-09-17T09:24:17.054Z,8.98
2022-09-17T09:27:15.973Z,10.02
2022-09-17T09:30:05.438Z,10.80
2022-09-17T09:32:48.637Z,11.15
2022-09-17T09:35:31.794Z,11.38
2022-09-17T09:38:21.316Z,11.93
2022-09-17T09:40:54.433Z,12.10
2022-09-17T09:44:02.634Z,11.43
2022-09-17T09:47:02.840Z,10.52
2022-09-17T09:49:56.672Z,10.50
2022-09-17T09:53:03.343Z,13.23
2022-09-17T09:56:06.766Z,10.65
2022-09-17T09:58:41.071Z,9.68
2022-09-17T10:01:20.086Z,10.77
2022-09-17T10:04:16.461Z,10.57
2022-09-17T10:06:45.545Z,10.23
2022-09-17T10:09:15.398Z,10.82
2022-09-17T10:11:44.503Z,10.48
2022-09-17T10:14:27.920Z,9.23
2022-09-17T10:17:21.068Z,11.23
2022-09-17T10:20:22.758Z,10.20
2022-09-17T10:22:51.710Z,19.33
2022-09-17T10:25:33.374Z,15.63
2022-09-17T10:28:06.294Z,12.60
2022-09-17T10:30:36.345Z,10.10
2022-09-17T10:33:18.589Z,8.38
2022-09-17T10:38:46.653Z,7.68
2022-09-17T10:41:18.823Z,9.30
2022-09-17T10:46:34.149Z,8.00
2022-09-17T10:49:41.608Z,7.13
2022-09-17T10:52:31.559Z,7.05
2022-09-17T10:55:50.176Z,7.97
2022-09-17T10:58:25.759Z,7.78
2022-09-17T11:01:18.607Z,8.48
2022-09-17T11:04:21.264Z,8.60
2022-09-17T11:10:07.875Z,7.90
2022-09-17T11:12:45.472Z,8.02
2022-09-17T11:15:29.731Z,8.45
2022-09-17T11:18:16.712Z,9.40
2022-09-17T11:21:03.276Z,8.60
2022-09-17T11:24:05.458Z,8.70
2022-09-17T11:26:58.114Z,9.48
2022-09-17T11:29:47.669Z,7.90
2022-09-17T11:32:44.605Z,8.85
2022-09-17T11:35:27.321Z,7.88
2022-09-17T11:38:04.742Z,8.40
2022-09-17T11:41:02.073Z,19.33
2022-09-17T11:43:48.032Z,15.70
2022-09-17T11:46:23.400Z,9.02
2022-09-17T11:49:19.472Z,9.77
2022-09-17T11:52:00.296Z,8.70
2022-09-17T11:54:54.948Z,8.70
2022-09-17T11:57:36.811Z,9.40
2022-09-17T12:00:08.106Z,8.70
2022-09-17T12:02:53.230Z,9.15
2022-09-17T12:05:30.713Z,11.32
2022-09-17T12:08:17.383Z,10.70
2022-09-17T12:11:13.393Z,10.40
2022-09-17T12:13:55.947Z,9.68
2022-09-17T12:16:43.984Z,9.95
2022-09-17T12:19:23.291Z,9.57
2022-09-17T12:22:05.939Z,10.10
2022-09-17T12:24:34.226Z,8.30
2022-09-17T12:27:26.739Z,8.88
2022-09-17T12:30:04.064Z,8.48
2022-09-17T12:32:51.042Z,11.43
2022-09-17T12:36:03.533Z,8.23
2022-09-17T12:38:38.239Z,8.18
2022-09-17T12:41:46.354Z,10.93
2022-09-17T12:44:30.714Z,9.02
2022-09-17T12:47:22.973Z,7.38
2022-09-17T12:50:00.437Z,6.78
2022-09-17T12:52:46.694Z,7.53
2022-09-17T12:55:36.363Z,7.70
2022-09-17T12:58:28.689Z,7.75
2022-09-17T13:01:07.708Z,9.98
2022-09-17T13:03:35.970Z,11.82
2022-09-17T13:06:32.464Z,7.40
2022-09-17T13:09:28.496Z,8.30
2022-09-17T13:12:06.306Z,6.30
2022-09-17T13:14:52.802Z,8.00
2022-09-17T13:17:29.556Z,7.15
2022-09-17T13:20:03.183Z,7.70
2022-09-17T13:22:33.270Z,7.60
2022-09-17T13:25:08.924Z,8.15
2022-09-17T13:27:38.589Z,9.05
2022-09-17T13:30:09.035Z,8.65
2022-09-17T13:32:37.181Z,7.97
2022-09-17T13:35:14.373Z,9.23
2022-09-17T13:37:54.557Z,8.35
2022-09-17T13:40:32.868Z,10.90
2022-09-17T13:43:18.392Z,7.82
2022-09-17T13:46:17.341Z,9.23
2022-09-17T13:48:49.031Z,11.82
2022-09-17T13:51:44.828Z,8.80
2022-09-17T13:54:14.337Z,8.90
2022-09-17T13:56:46.339Z,8.13
2022-09-17T14:02:00.611Z,8.90
2022-09-17T14:04:42.236Z,8.65
2022-09-17T14:07:22.696Z,9.05
2022-09-17T14:09:57.757Z,8.82
2022-09-17T14:12:41.420Z,8.10
2022-09-17T14:15:42.533Z,7.68
2022-09-17T14:18:35.344Z,8.15
2022-09-17T14:21:09.774Z,7.47
2022-09-17T14:23:50.517Z,8.18
2022-09-17T14:26:40.967Z,12.98
2022-09-17T14:29:39.440Z,12.00
2022-09-17T14:32:13.655Z,9.93
2022-09-17T14:34:42.552Z,8.85
2022-09-17T14:37:19.627Z,12.18
2022-09-17T14:39:49.636Z,16.45
2022-09-17T14:42:24.190Z,13.27
2022-09-17T14:45:01.020Z,10.80
2022-09-17T14:47:29.324Z,8.27
2022-09-17T14:50:24.867Z,9.40
2022-09-17T14:52:54.821Z,10.90
2022-09-17T14:55:28.867Z,9.40
2022-09-17T14:57:59.605Z,9.00
2022-09-17T15:00:38.945Z,12.55
2022-09-17T15:03:07.331Z,16.38
2022-09-17T15:05:38.948Z,12.38
2022-09-17T15:08:15.080Z,10.77
2022-09-17T15:11:04.169Z,9.15
2022-09-17T15:13:37.279Z,9.35
2022-09-17T15:16:14.367Z,11.93
2022-09-17T15:18:48.821Z,9.80
2022-09-17T15:21:24.487Z,9.00
2022-09-17T15:23:58.988Z,9.40
2022-09-17T15:26:32.861Z,9.07
2022-09-17T15:29:02.613Z,9.88
2022-09-17T15:31:30.864Z,9.00
2022-09-17T15:34:02.367Z,7.95
2022-09-17T15:36:30.824Z,8.98
2022-09-17T15:38:59.624Z,7.90
2022-09-17T15:41:35.530Z,6.95
2022-09-17T15:44:33.496Z,7.97
2022-09-17T15:47:55.677Z,8.15
2022-09-17T15:50:29.200Z,7.45
2022-09-17T15:53:14.406Z,8.30
2022-09-17T15:56:01.775Z,8.13
2022-09-17T15:58:32.860Z,8.27
2022-09-17T16:01:16.376Z,7.30
2022-09-17T16:03:44.806Z,7.65
2022-09-17T16:06:22.095Z,8.70
2022-09-17T16:08:51.655Z,7.97
2022-09-17T16:11:24.925Z,10.80
2022-09-17T16:13:56.345Z,9.45
2022-09-17T16:16:33.484Z,10.27
2022-09-17T16:19:02.215Z,11.45
2022-09-17T16:21:30.522Z,10.35
2022-09-17T16:23:59.081Z,10.52
2022-09-17T16:26:31.394Z,11.52
2022-09-17T16:29:14.629Z,11.05
2022-09-17T16:31:42.995Z,9.75
2022-09-17T16:34:11.302Z,8.45
2022-09-17T16:36:39.585Z,9.38
2022-09-17T16:39:07.878Z,7.60
2022-09-17T16:41:36.211Z,8.00
2022-09-17T16:44:04.350Z,8.32
2022-09-17T16:46:32.444Z,7.07
2022-09-17T16:49:00.834Z,6.13
2022-09-17T16:51:29.177Z,6.32
2022-09-17T16:53:57.456Z,7.70
2022-09-17T16:56:25.830Z,8.88
2022-09-17T16:58:57.244Z,9.57
2022-09-17T17:01:25.526Z,8.38
2022-09-17T17:03:53.962Z,10.38
2022-09-17T17:06:23.221Z,8.50
2022-09-17T17:08:51.491Z,9.23
2022-09-17T17:11:19.605Z,7.50
2022-09-17T17:13:48.132Z,8.20
2022-09-17T17:16:16.616Z,8.73
2022-09-17T17:18:45.169Z,8.68
2022-09-17T17:21:15.544Z,8.93
2022-09-17T17:23:43.761Z,8.75
2022-09-17T17:26:11.972Z,9.15
2022-09-17T17:28:40.142Z,10.15
2022-09-17T17:31:08.325Z,10.40
2022-09-17T17:33:36.509Z,9.13
2022-09-17T17:36:08.222Z,10.65
2022-09-17T17:41:15.592Z,11.68
2022-09-17T17:43:43.899Z,11.35
2022-09-17T17:46:13.053Z,9.38
2022-09-17T17:48:41.378Z,9.50
2022-09-17T17:51:10.760Z,11.20
2022-09-17T17:53:42.417Z,11.55
2022-09-17T17:56:12.316Z,10.00
2022-09-17T17:58:41.614Z,11.48
2022-09-17T18:01:24.786Z,11.05
2022-09-17T18:03:57.630Z,10.57
2022-09-17T18:06:26.508Z,10.90
2022-09-17T18:08:54.758Z,10.80
2022-09-17T18:11:24.104Z,11.18
2022-09-17T18:13:56.744Z,10.90
2022-09-17T18:16:25.305Z,10.60
2022-09-17T18:18:55.650Z,12.77
2022-09-17T18:21:24.640Z,12.90
2022-09-17T18:23:53.628Z,10.45
2022-09-17T18:26:28.564Z,8.52
2022-09-17T18:28:56.998Z,8.30
2022-09-17T18:31:30.304Z,9.35
2022-09-17T18:34:17.870Z,10.73
2022-09-17T18:36:50.856Z,11.27
2022-09-17T18:42:08.024Z,11.50
2022-09-17T18:44:36.120Z,11.80
2022-09-17T18:47:04.600Z,11.93
2022-09-17T18:49:32.783Z,13.30
2022-09-17T18:52:00.973Z,10.05
2022-09-17T18:54:29.220Z,10.23
2022-09-17T18:56:57.323Z,8.90
2022-09-17T18:59:25.500Z,13.00
2022-09-17T19:01:53.843Z,12.38
2022-09-17T19:04:22.129Z,9.48
2022-09-17T19:06:50.557Z,14.63
2022-09-17T19:09:19.156Z,11.20
2022-09-17T19:11:49.466Z,10.18
2022-09-17T19:14:18.010Z,10.98
2022-09-17T19:16:46.369Z,9.35
2022-09-17T19:19:14.850Z,9.45
2022-09-17T19:21:43.446Z,8.75
2022-09-17T19:24:11.849Z,7.95
2022-09-17T19:26:40.228Z,8.50
2022-09-17T19:29:08.670Z,8.32
2022-09-17T19:31:37.081Z,7.97
2022-09-17T19:34:05.594Z,7.53
2022-09-17T19:36:34.334Z,6.50
2022-09-17T19:39:02.613Z,7.72
2022-09-17T19:41:31.173Z,7.45
2022-09-17T19:43:59.557Z,7.57
2022-09-17T19:46:28.219Z,10.30
2022-09-17T19:48:58.291Z,6.90
2022-09-17T19:51:28.709Z,8.68
2022-09-17T19:53:57.342Z,6.57
2022-09-17T19:56:27.932Z,6.95
2022-09-17T19:58:56.360Z,9.48
2022-09-17T20:01:25.057Z,8.00
2022-09-17T20:03:53.633Z,9.52
2022-09-17T20:06:22.302Z,9.50
2022-09-17T20:08:52.607Z,10.40
2022-09-17T20:11:23.110Z,11.30
2022-09-17T20:13:56.781Z,9.70
2022-09-17T20:16:25.366Z,12.35
2022-09-17T20:18:54.273Z,10.10
2022-09-17T20:22:18.597Z,8.13
2022-09-17T20:24:50.916Z,9.18
2022-09-17T20:27:19.817Z,8.38
2022-09-17T20:29:48.286Z,9.55
2022-09-17T20:32:16.689Z,8.93
2022-09-17T20:34:45.207Z,8.18
2022-09-17T20:37:14.044Z,8.35
2022-09-17T20:39:42.681Z,8.07
2022-09-17T20:42:11.227Z,7.90
2022-09-17T20:44:39.739Z,8.88
2022-09-17T20:47:08.266Z,10.32
2022-09-17T20:49:36.570Z,13.25
2022-09-17T20:52:05.168Z,20.50
2022-09-17T20:54:33.553Z,22.15
2022-09-17T20:57:02.010Z,22.85
2022-09-17T20:59:30.487Z,24.38
2022-09-17T21:01:58.940Z,25.48
2022-09-17T21:04:27.507Z,27.17
2022-09-17T21:06:55.943Z,24.65
2022-09-17T21:09:24.454Z,24.73
2022-09-17T21:11:52.890Z,32.65
2022-09-17T21:14:21.431Z,91.80
2022-09-17T21:16:49.826Z,13.25
2022-09-17T21:19:18.354Z,9.20
2022-09-17T21:21:46.827Z,9.38
2022-09-17T21:24:15.103Z,11.10
2022-09-17T21:26:43.565Z,10.52
2022-09-17T21:29:12.266Z,9.35
2022-09-17T21:31:40.756Z,10.13
2022-09-17T21:34:12.473Z,7.95
2022-09-17T21:36:42.685Z,8.05
2022-09-17T21:39:16.577Z,8.15
2022-09-17T21:41:46.228Z,7.00
2022-09-17T21:44:15.361Z,7.32
2022-09-17T21:46:44.240Z,8.38
2022-09-17T21:49:13.029Z,8.57
2022-09-17T21:51:43.612Z,13.30
2022-09-17T21:54:14.138Z,10.30
2022-09-17T21:56:42.863Z,9.85
2022-09-17T21:59:13.939Z,7.70
2022-09-17T22:01:47.590Z,6.97
2022-09-17T22:04:18.693Z,9.15
2022-09-17T22:06:48.349Z,10.07
2022-09-17T22:09:20.649Z,9.73
2022-09-17T22:11:49.923Z,10.32
2022-09-17T22:14:20.716Z,11.10
2022-09-17T22:16:52.992Z,11.18
2022-09-17T22:21:52.495Z,11.85
2022-09-17T22:24:22.742Z,11.27
2022-09-17T22:26:57.241Z,9.50
2022-09-17T22:29:28.285Z,9.43
2022-09-17T22:31:56.552Z,9.82
2022-09-17T22:34:25.129Z,9.73
2022-09-17T22:36:53.660Z,10.60
2022-09-17T22:39:22.826Z,9.00
2022-09-17T22:41:51.574Z,9.05
2022-09-17T22:44:20.963Z,8.15
2022-09-17T22:46:51.899Z,7.57
2022-09-17T22:49:20.665Z,7.75
2022-09-17T22:51:49.215Z,7.75
2022-09-17T22:54:18.765Z,7.10
2022-09-17T22:56:48.564Z,6.50
2022-09-17T22:59:17.449Z,6.45
2022-09-17T23:01:45.695Z,6.72
2022-09-17T23:04:14.089Z,7.22
2022-09-17T23:06:42.564Z,8.15
2022-09-17T23:09:12.510Z,8.68
2022-09-17T23:11:41.481Z,9.07
2022-09-17T23:14:12.564Z,8.90
2022-09-17T23:16:46.543Z,9.10
2022-09-17T23:19:16.826Z,8.93
2022-09-17T23:21:45.751Z,7.82
2022-09-17T23:24:19.627Z,8.70
2022-09-17T23:26:48.650Z,9.80
2022-09-17T23:29:16.977Z,10.43
2022-09-17T23:31:45.439Z,10.30
2022-09-17T23:34:13.784Z,9.95
2022-09-17T23:36:42.062Z,8.75
2022-09-17T23:39:12.075Z,7.85
2022-09-17T23:41:42.563Z,7.32
2022-09-17T23:44:15.240Z,7.47
2022-09-17T23:46:45.489Z,6.60
2022-09-17T23:49:14.704Z,8.10
2022-09-17T23:51:43.112Z,7.10
2022-09-17T23:54:12.107Z,6.53
2022-09-17T23:56:40.276Z,6.57
2022-09-17T23:59:08.553Z,6.65
